Time;durP1;ratioP1;P1;durP2;ratioP2;P2;SDS_P1;SDS_P2;PMS_P1;PMS_P2;Temp;Humidity;BMP_temperature;BMP_pressure;BME280_temperature;BME280_humidity;BME280_pressure;Samples;Min_cycle;Max_cycle;Signal;HPM_P1;HPM_P2
2022/03/19 00:00:33;;;;;;;22.45;13.57;;;;;;;5.52;100.00;96719.06;5015539;28;20033;-65
2022/03/19 00:03:02;;;;;;;20.70;13.13;;;;;;;5.56;100.00;96703.59;5015410;28;20030;-65
2022/03/19 00:05:27;;;;;;;20.85;11.48;;;;;;;5.56;100.00;96701.75;4981699;28;20096;-64
2022/03/19 00:07:53;;;;;;;20.02;12.90;;;;;;;5.59;100.00;96709.31;5007832;28;20468;-66
2022/03/19 00:10:24;;;;;;;21.40;12.57;;;;;;;5.58;100.00;96720.97;4997964;28;20100;-65
2022/03/19 00:12:50;;;;;;;20.95;13.05;;;;;;;5.57;100.00;96716.66;4997787;28;20053;-65
2022/03/19 00:15:16;;;;;;;22.80;13.15;;;;;;;5.51;100.00;96712.13;5015180;28;20065;-64
2022/03/19 00:17:42;;;;;;;24.33;13.95;;;;;;;5.48;100.00;96718.66;5015207;28;20030;-64
2022/03/19 00:20:14;;;;;;;25.65;13.88;;;;;;;5.47;100.00;96719.66;5015259;28;20034;-65
2022/03/19 00:22:40;;;;;;;21.10;13.27;;;;;;;5.42;100.00;96713.28;5015185;28;20079;-64
2022/03/19 00:25:09;;;;;;;21.48;13.50;;;;;;;5.38;100.00;96718.16;5015219;28;20026;-65
2022/03/19 00:27:43;;;;;;;18.48;12.05;;;;;;;5.40;100.00;96708.16;4997480;28;20021;-65
2022/03/19 00:30:12;;;;;;;20.17;12.55;;;;;;;5.41;100.00;96707.13;5014652;28;20399;-65
2022/03/19 00:32:41;;;;;;;22.35;12.60;;;;;;;5.41;100.00;96696.50;5014625;28;20029;-65
2022/03/19 00:35:08;;;;;;;21.65;12.95;;;;;;;5.46;100.00;96715.38;5014862;28;20112;-65
2022/03/19 00:37:43;;;;;;;21.52;12.93;;;;;;;5.42;100.00;96716.75;4993764;28;20053;-65
2022/03/19 00:40:10;;;;;;;20.13;12.70;;;;;;;5.34;100.00;96713.44;4995419;28;20033;-65
2022/03/19 00:42:36;;;;;;;19.17;11.95;;;;;;;5.33;100.00;96719.75;4995020;28;20022;-64
2022/03/19 00:45:01;;;;;;;20.40;12.07;;;;;;;5.32;100.00;96713.63;4995327;28;20022;-65
2022/03/19 00:47:27;;;;;;;22.30;13.57;;;;;;;5.31;100.00;96713.78;4995013;28;20060;-65
2022/03/19 00:49:57;;;;;;;22.50;13.18;;;;;;;5.28;100.00;96711.53;4993926;28;20034;-65
2022/03/19 00:52:23;;;;;;;20.10;12.18;;;;;;;5.27;100.00;96717.84;4994970;28;20033;-65
2022/03/19 00:54:48;;;;;;;22.08;12.35;;;;;;;5.14;100.00;96708.75;4994026;28;20022;-67
2022/03/19 00:57:39;;;;;;;19.75;11.77;;;;;;;5.20;100.00;96725.75;4994678;28;20033;-65
2022/03/19 01:00:05;;;;;;;19.77;11.63;;;;;;;5.18;100.00;96723.28;4994882;28;20030;-65
2022/03/19 01:02:30;;;;;;;18.90;12.23;;;;;;;5.20;100.00;96734.53;4993957;28;20576;-65
2022/03/19 01:04:56;;;;;;;21.58;12.00;;;;;;;5.17;100.00;96734.94;4994837;28;20297;-65
2022/03/19 01:07:23;;;;;;;19.25;11.23;;;;;;;5.14;100.00;96743.28;4979322;28;20415;-65
2022/03/19 01:09:49;;;;;;;17.42;10.80;;;;;;;5.17;100.00;96745.56;4975344;28;20465;-65
2022/03/19 01:12:26;;;;;;;17.73;11.30;;;;;;;5.15;100.00;96736.16;4975319;28;20058;-65
2022/03/19 01:15:01;;;;;;;19.27;11.90;;;;;;;5.13;100.00;96749.63;4974333;28;20038;-65
2022/03/19 01:17:27;;;;;;;18.85;11.00;;;;;;;5.11;100.00;96742.84;4975125;28;20127;-65
2022/03/19 01:19:52;;;;;;;18.35;11.02;;;;;;;5.04;100.00;96741.97;4975453;28;20117;-65
2022/03/19 01:22:21;;;;;;;19.77;11.10;;;;;;;5.05;100.00;96739.13;4973850;28;20117;-64
2022/03/19 01:24:50;;;;;;;21.08;11.88;;;;;;;5.05;100.00;96736.47;4975066;28;20065;-64
2022/03/19 01:27:18;;;;;;;19.50;11.95;;;;;;;5.05;100.00;96727.66;4974895;28;20029;-64
2022/03/19 01:29:47;;;;;;;19.92;11.50;;;;;;;5.02;100.00;96733.38;4975013;28;20023;-64
2022/03/19 01:32:13;;;;;;;20.75;12.05;;;;;;;4.99;100.00;96721.28;4989913;28;20030;-64
2022/03/19 01:34:38;;;;;;;19.83;11.63;;;;;;;5.00;100.00;96733.56;4973475;28;20118;-65
2022/03/19 01:37:04;;;;;;;19.02;11.85;;;;;;;4.92;100.00;96737.16;4973371;28;20661;-65
2022/03/19 01:39:35;;;;;;;19.33;12.00;;;;;;;4.88;100.00;96729.72;4974839;28;20031;-65
2022/03/19 01:42:01;;;;;;;21.30;12.07;;;;;;;4.88;100.00;96727.09;4973472;28;20026;-65
2022/03/19 01:44:43;;;;;;;20.05;12.35;;;;;;;4.91;100.00;96724.91;4974794;28;20371;-65
2022/03/19 01:47:11;;;;;;;20.13;11.48;;;;;;;4.87;100.00;96712.97;4974400;28;20033;-65
2022/03/19 01:49:42;;;;;;;18.35;11.27;;;;;;;4.91;100.00;96738.16;4975007;28;20031;-64
2022/03/19 01:52:16;;;;;;;21.15;12.48;;;;;;;4.94;100.00;96740.44;4974876;28;20030;-64
2022/03/19 01:54:53;;;;;;;21.13;12.20;;;;;;;4.87;100.00;96734.22;4975003;28;20081;-64
2022/03/19 01:57:25;;;;;;;22.02;12.07;;;;;;;4.87;100.00;96738.72;4974138;28;20023;-66
2022/03/19 02:00:10;;;;;;;19.85;11.70;;;;;;;4.84;100.00;96733.78;4987152;28;20088;-65
2022/03/19 02:02:36;;;;;;;19.90;12.35;;;;;;;4.78;100.00;96737.22;4993855;28;20042;-65
2022/03/19 02:05:04;;;;;;;20.75;11.93;;;;;;;4.74;100.00;96736.75;4993731;28;20034;-65
2022/03/19 02:07:31;;;;;;;17.50;11.25;;;;;;;4.73;100.00;96734.28;4975872;28;20023;-65
2022/03/19 02:10:02;;;;;;;21.60;12.50;;;;;;;4.72;100.00;96730.81;4974278;28;20057;-65
2022/03/19 02:12:38;;;;;;;19.35;12.13;;;;;;;4.71;100.00;96720.38;5005782;28;20030;-65
2022/03/19 02:15:04;;;;;;;20.98;11.57;;;;;;;4.68;100.00;96721.59;4974162;28;20018;-65
2022/03/19 02:17:32;;;;;;;21.23;12.73;;;;;;;4.69;100.00;96719.75;4972735;28;20393;-65
2022/03/19 02:19:58;;;;;;;19.27;12.00;;;;;;;4.62;100.00;96714.38;4972783;28;20034;-65
2022/03/19 02:22:27;;;;;;;21.85;13.15;;;;;;;4.59;100.00;96712.09;4973964;28;20034;-65
2022/03/19 02:27:47;;;;;;;20.50;12.48;;;;;;;4.58;100.00;96718.41;4974094;28;20519;-65
2022/03/19 02:30:15;;;;;;;21.20;12.27;;;;;;;4.56;100.00;96718.59;4972643;28;20019;-65
2022/03/19 02:32:43;;;;;;;20.10;12.45;;;;;;;4.53;100.00;96707.53;4972715;28;20027;-65
2022/03/19 02:35:19;;;;;;;21.02;12.95;;;;;;;4.48;100.00;96712.56;4973956;28;20031;-64
2022/03/19 02:37:53;;;;;;;19.20;11.75;;;;;;;4.41;100.00;96706.38;4990491;28;20134;-64
2022/03/19 02:40:21;;;;;;;19.05;12.60;;;;;;;4.36;100.00;96694.50;4993303;28;20072;-65
2022/03/19 02:42:51;;;;;;;21.00;13.32;;;;;;;4.39;100.00;96693.28;4975642;28;20018;-65
2022/03/19 02:45:21;;;;;;;21.73;13.25;;;;;;;4.41;100.00;96685.97;4975621;28;20034;-65
2022/03/19 02:47:59;;;;;;;22.10;13.05;;;;;;;4.38;100.00;96694.31;4993042;28;20040;-65
2022/03/19 02:50:35;;;;;;;19.17;11.80;;;;;;;4.39;100.00;96687.16;4993045;28;20022;-65
2022/03/19 02:53:33;;;;;;;21.65;13.02;;;;;;;4.38;100.00;96685.53;4975528;28;20386;-65
2022/03/19 02:56:02;;;;;;;22.63;13.20;;;;;;;4.36;100.00;96675.09;4992899;28;20041;-65
2022/03/19 02:58:27;;;;;;;21.35;12.80;;;;;;;4.31;100.00;96674.81;4994363;28;20038;-65
2022/03/19 03:00:55;;;;;;;23.42;12.90;;;;;;;4.26;100.00;96662.13;5012635;28;20029;-65
2022/03/19 03:03:26;;;;;;;20.60;12.25;;;;;;;4.29;100.00;96658.28;5012495;28;20104;-65
2022/03/19 03:06:00;;;;;;;23.67;12.88;;;;;;;4.32;100.00;96657.91;5009115;28;20026;-65
2022/03/19 03:08:26;;;;;;;23.58;13.63;;;;;;;4.26;100.00;96651.53;4992568;28;20022;-65
2022/03/19 03:11:00;;;;;;;25.15;13.25;;;;;;;4.18;100.00;96650.81;4992871;28;20056;-65
2022/03/19 03:13:27;;;;;;;21.05;13.00;;;;;;;4.13;100.00;96642.59;4992740;28;20022;-65
2022/03/19 03:15:52;;;;;;;21.70;13.75;;;;;;;4.12;100.00;96644.41;4992665;28;20493;-65
2022/03/19 03:18:19;;;;;;;23.27;12.93;;;;;;;4.08;100.00;96640.50;4992685;28;20114;-64
2022/03/19 03:20:44;;;;;;;23.77;14.50;;;;;;;4.05;100.00;96632.91;4975171;28;20061;-65
2022/03/19 03:23:09;;;;;;;21.73;13.40;;;;;;;4.05;100.00;96635.56;4992900;28;20056;-64
2022/03/19 03:25:38;;;;;;;20.63;13.55;;;;;;;3.98;100.00;96634.66;4991471;28;20023;-64
2022/03/19 03:28:05;;;;;;;19.85;12.50;;;;;;;3.94;100.00;96620.97;4992598;28;20027;-64
2022/03/19 03:30:31;;;;;;;24.67;14.23;;;;;;;3.92;100.00;96620.31;4992652;28;20026;-65
2022/03/19 03:32:56;;;;;;;25.67;14.25;;;;;;;3.87;100.00;96614.75;4992597;28;20046;-65
2022/03/19 03:35:25;;;;;;;22.05;13.13;;;;;;;3.83;100.00;96602.06;4992484;28;20030;-65
2022/03/19 03:37:53;;;;;;;23.67;13.85;;;;;;;3.77;100.00;96601.78;4991940;28;20196;-65
2022/03/19 03:40:19;;;;;;;23.88;13.73;;;;;;;3.82;100.00;96601.25;4975175;28;20027;-65
2022/03/19 03:42:44;;;;;;;23.85;13.95;;;;;;;3.77;100.00;96603.59;4992421;28;20033;-65
2022/03/19 03:45:12;;;;;;;24.17;14.00;;;;;;;3.78;100.00;96592.00;4975195;28;20037;-65
2022/03/19 03:47:41;;;;;;;24.42;12.90;;;;;;;3.82;100.00;96593.28;4992511;28;20073;-64
2022/03/19 03:50:08;;;;;;;25.38;14.18;;;;;;;3.76;100.00;96592.19;4992318;28;20386;-65
2022/03/19 03:52:39;;;;;;;23.77;14.00;;;;;;;3.68;100.00;96592.28;4992389;28;20057;-65
2022/03/19 03:55:08;;;;;;;23.63;13.77;;;;;;;3.66;100.00;96583.69;4992518;28;20030;-64
2022/03/19 03:57:37;;;;;;;24.35;13.10;;;;;;;3.63;100.00;96583.25;4992205;28;20022;-65
2022/03/19 04:00:08;;;;;;;25.17;14.52;;;;;;;3.59;100.00;96579.34;5006936;28;20030;-68
2022/03/19 04:02:34;;;;;;;24.33;13.60;;;;;;;3.60;100.00;96575.69;5011893;28;20030;-67
2022/03/19 04:05:06;;;;;;;22.80;13.57;;;;;;;3.54;100.00;96563.16;5011996;28;20440;-67
2022/03/19 04:07:37;;;;;;;22.88;14.23;;;;;;;3.47;100.00;96557.78;4980550;28;20030;-67
2022/03/19 04:10:03;;;;;;;25.90;14.43;;;;;;;3.48;100.00;96559.44;4978553;28;20508;-64
2022/03/19 04:12:28;;;;;;;25.63;14.07;;;;;;;3.49;100.00;96556.59;4978425;28;20030;-65
2022/03/19 04:14:54;;;;;;;22.92;14.18;;;;;;;3.47;100.00;96555.97;4995559;28;20488;-64
2022/03/19 04:17:21;;;;;;;24.73;13.40;;;;;;;3.46;100.00;96561.44;4995639;28;20492;-64
2022/03/19 04:19:59;;;;;;;24.27;14.00;;;;;;;3.45;100.00;96552.66;4978238;28;20026;-64
2022/03/19 04:22:34;;;;;;;23.50;14.10;;;;;;;3.51;100.00;96552.94;4995194;28;20065;-66
2022/03/19 04:25:05;;;;;;;25.73;14.20;;;;;;;3.49;100.00;96553.13;4995534;28;20113;-63
2022/03/19 04:27:31;;;;;;;24.13;14.50;;;;;;;3.48;100.00;96554.16;4994109;28;20477;-64
2022/03/19 04:29:56;;;;;;;26.08;15.52;;;;;;;3.45;100.00;96557.97;4994330;28;20122;-66
2022/03/19 04:32:22;;;;;;;25.42;14.52;;;;;;;3.41;100.00;96559.34;4995495;28;20022;-67
2022/03/19 04:34:48;;;;;;;23.08;14.15;;;;;;;3.39;100.00;96563.19;4995464;28;20191;-67
2022/03/19 04:40:02;;;;;;;24.13;14.13;;;;;;;3.39;100.00;96560.53;4995215;28;20034;-65
2022/03/19 04:42:36;;;;;;;24.45;14.70;;;;;;;3.38;100.00;96556.25;4994151;28;20501;-65
2022/03/19 04:45:05;;;;;;;26.63;14.95;;;;;;;3.32;100.00;96559.63;4995237;28;20030;-65
2022/03/19 04:47:36;;;;;;;22.30;14.75;;;;;;;3.33;100.00;96566.56;4993872;28;20038;-65
2022/03/19 04:50:04;;;;;;;27.90;14.82;;;;;;;3.27;100.00;96560.19;4977680;28;20058;-64
2022/03/19 04:52:35;;;;;;;26.08;14.70;;;;;;;3.20;100.00;96559.25;4994947;28;20501;-65
2022/03/19 04:55:05;;;;;;;25.92;14.63;;;;;;;3.17;100.00;96552.50;4977587;28;20050;-65
2022/03/19 04:57:35;;;;;;;26.60;15.48;;;;;;;3.15;100.00;96551.88;4994818;28;20018;-64
2022/03/19 05:00:00;;;;;;;28.20;15.82;;;;;;;3.17;100.00;96554.34;5009113;28;20064;-67
2022/03/19 05:02:33;;;;;;;28.08;15.57;;;;;;;3.13;100.00;96553.03;4996949;28;20492;-65
2022/03/19 05:05:01;;;;;;;32.65;15.75;;;;;;;3.08;100.00;96553.59;5014275;28;20022;-64
2022/03/19 05:07:35;;;;;;;28.15;16.48;;;;;;;3.01;100.00;96531.50;4981233;28;20042;-67
2022/03/19 05:12:55;;;;;;;26.45;15.00;;;;;;;2.98;100.00;96520.47;4994028;28;20045;-68
2022/03/19 05:15:20;;;;;;;28.52;16.65;;;;;;;2.96;100.00;96515.34;4994604;28;20485;-65
2022/03/19 05:17:45;;;;;;;30.13;16.60;;;;;;;2.98;100.00;96528.41;4994267;28;20080;-65
2022/03/19 05:20:12;;;;;;;33.03;18.67;;;;;;;2.96;100.00;96511.88;4994532;28;20076;-65
2022/03/19 05:22:43;;;;;;;30.30;17.02;;;;;;;2.90;100.00;96511.59;4994639;28;20033;-65
2022/03/19 05:25:09;;;;;;;30.52;17.45;;;;;;;2.88;100.00;96515.44;4994497;28;20034;-65
2022/03/19 05:27:34;;;;;;;33.08;17.75;;;;;;;2.91;100.00;96512.41;4976857;28;20376;-64
2022/03/19 05:29:59;;;;;;;34.17;17.85;;;;;;;2.90;100.00;96501.00;4994262;28;20524;-64
2022/03/19 05:32:25;;;;;;;31.52;18.42;;;;;;;2.85;100.00;96506.03;4994392;28;20030;-63
2022/03/19 05:35:04;;;;;;;32.30;18.13;;;;;;;2.84;100.00;96500.94;4994405;28;20113;-64
2022/03/19 05:37:29;;;;;;;31.58;18.58;;;;;;;2.82;100.00;96495.81;5017409;23;20119;-63
2022/03/19 05:39:59;;;;;;;31.20;18.90;;;;;;;2.81;100.00;96496.78;4995138;28;20030;-63
2022/03/19 05:42:25;;;;;;;33.50;18.83;;;;;;;2.77;100.00;96486.78;5013468;28;20029;-62
2022/03/19 05:44:54;;;;;;;31.13;19.13;;;;;;;2.79;100.00;96490.06;4996254;28;20392;-63
2022/03/19 05:47:23;;;;;;;33.80;19.17;;;;;;;2.78;100.00;96476.00;4998488;28;20073;-63
2022/03/19 05:49:48;;;;;;;31.40;19.05;;;;;;;2.80;100.00;96475.81;4974589;28;20026;-63
2022/03/19 05:52:33;;;;;;;34.28;19.25;;;;;;;2.79;100.00;96476.81;4974597;28;20027;-60
2022/03/19 05:54:59;;;;;;;34.97;19.25;;;;;;;2.76;100.00;96470.06;4956976;28;20026;-61
2022/03/19 05:57:24;;;;;;;37.00;19.55;;;;;;;2.78;100.00;96468.06;4974271;28;20113;-62
2022/03/19 05:59:56;;;;;;;35.03;19.02;;;;;;;2.80;100.00;96462.59;4987073;28;20069;-60
2022/03/19 06:02:27;;;;;;;35.50;19.50;;;;;;;2.81;100.00;96462.41;4976531;28;20026;-62
2022/03/19 06:04:53;;;;;;;32.83;19.70;;;;;;;2.81;100.00;96465.03;4993776;28;20085;-60
2022/03/19 06:07:18;;;;;;;35.75;20.60;;;;;;;2.81;100.00;96467.69;4976035;28;20022;-65
2022/03/19 06:09:44;;;;;;;33.17;19.90;;;;;;;2.77;100.00;96453.19;4976153;28;20031;-63
2022/03/19 06:12:10;;;;;;;35.38;20.08;;;;;;;2.81;100.00;96456.28;4965663;28;20022;-62
2022/03/19 06:14:35;;;;;;;38.65;20.33;;;;;;;2.82;100.00;96442.91;4991932;28;20052;-62
2022/03/19 06:17:00;;;;;;;41.58;20.35;;;;;;;2.81;100.00;96453.63;4993461;28;20456;-60
2022/03/19 06:19:26;;;;;;;34.92;20.58;;;;;;;2.82;100.00;96450.00;4989388;28;20128;-62
2022/03/19 06:21:51;;;;;;;32.67;19.90;;;;;;;2.82;100.00;96444.69;4987392;28;20048;-67
2022/03/19 06:24:17;;;;;;;35.58;19.90;;;;;;;2.83;100.00;96446.38;4982888;28;20401;-65
2022/03/19 06:26:43;;;;;;;37.63;21.23;;;;;;;2.87;100.00;96447.63;4988935;28;20057;-62
2022/03/19 06:29:12;;;;;;;36.47;20.10;;;;;;;2.86;100.00;96446.81;4991432;28;20030;-63
2022/03/19 06:31:37;;;;;;;35.30;20.77;;;;;;;2.88;100.00;96441.34;4994048;28;20041;-63
2022/03/19 06:34:06;;;;;;;36.13;19.77;;;;;;;2.91;100.00;96440.97;4976217;28;20576;-63
2022/03/19 06:39:15;;;;;;;26.42;14.20;;;;;;;3.02;100.00;96434.38;4983103;28;20106;-61
2022/03/19 06:41:40;;;;;;;37.08;21.30;;;;;;;3.15;100.00;96434.56;5001873;28;20046;-60
2022/03/19 06:44:06;;;;;;;37.05;20.77;;;;;;;3.24;100.00;96435.25;4989537;28;20023;-64
2022/03/19 06:46:31;;;;;;;36.15;20.77;;;;;;;3.27;100.00;96419.84;4975901;28;20046;-63
2022/03/19 06:48:58;;;;;;;36.60;21.30;;;;;;;3.33;100.00;96434.97;4974793;28;20106;-68
2022/03/19 06:51:24;;;;;;;38.03;21.00;;;;;;;3.33;100.00;96431.50;4895837;28;20043;-62
2022/03/19 06:53:49;;;;;;;39.42;21.17;;;;;;;3.41;100.00;96436.69;4970429;28;20022;-62
2022/03/19 06:56:16;;;;;;;36.97;21.45;;;;;;;3.51;100.00;96445.16;4989001;28;20477;-62
2022/03/19 06:58:42;;;;;;;38.35;22.17;;;;;;;3.55;100.00;96433.16;4963181;28;20049;-61
2022/03/19 07:01:14;;;;;;;38.17;23.45;;;;;;;3.63;100.00;96438.34;4990382;28;20049;-64
2022/03/19 07:03:40;;;;;;;;;;;;;;;3.77;100.00;96439.28;4983282;28;20026;-65
2022/03/19 07:06:05;;;;;;;42.40;21.92;;;;;;;3.91;100.00;96434.97;4992248;28;19917;-63
2022/03/19 07:08:32;;;;;;;36.85;20.40;;;;;;;3.95;100.00;96442.34;4973925;28;20462;-64
2022/03/19 07:11:01;;;;;;;38.72;22.75;;;;;;;4.14;100.00;96440.88;4991875;28;20058;-62
2022/03/19 07:13:29;;;;;;;41.40;23.85;;;;;;;4.33;100.00;96437.53;4990103;28;20033;-61
2022/03/19 07:15:54;;;;;;;39.88;22.88;;;;;;;4.50;100.00;96450.53;4972845;28;20096;-61
2022/03/19 07:18:20;;;;;;;42.75;24.25;;;;;;;4.62;100.00;96451.63;4974584;28;20026;-56
2022/03/19 07:20:45;;;;;;;41.38;23.60;;;;;;;4.58;100.00;96459.19;4967063;28;20018;-58
2022/03/19 07:23:11;;;;;;;42.50;22.70;;;;;;;4.71;100.00;96454.97;4986309;28;20022;-63
2022/03/19 07:25:39;;;;;;;42.40;23.25;;;;;;;4.91;100.00;96463.88;4983770;28;20023;-60
2022/03/19 07:28:09;;;;;;;41.38;24.25;;;;;;;4.91;100.00;96471.84;4985274;28;20114;-62
2022/03/19 07:30:35;;;;;;;46.10;24.17;;;;;;;4.94;100.00;96472.25;4971023;28;20146;-71
2022/03/19 07:33:01;;;;;;;43.50;24.40;;;;;;;4.93;100.00;96488.38;4985404;28;20548;-59
2022/03/19 07:35:27;;;;;;;39.08;23.42;;;;;;;5.27;100.00;96474.28;4993438;28;20093;-62
2022/03/19 07:37:53;;;;;;;41.55;23.35;;;;;;;5.43;100.00;96484.56;4989621;28;20507;-56
2022/03/19 07:43:08;;;;;;;41.40;23.55;;;;;;;5.35;100.00;96497.19;4954725;28;20042;-62
2022/03/19 07:45:34;;;;;;;42.88;24.33;;;;;;;5.51;100.00;96505.63;4994316;28;20026;-62
2022/03/19 07:48:07;;;;;;;40.13;24.02;;;;;;;5.60;100.00;96497.50;4970263;28;20025;-57
2022/03/19 07:50:33;;;;;;;43.78;24.98;;;;;;;5.54;100.00;96493.81;4976821;28;20486;-59
2022/03/19 07:52:59;;;;;;;45.47;24.92;;;;;;;5.74;100.00;96507.97;4959968;28;20054;-60
2022/03/19 07:55:27;;;;;;;48.42;24.15;;;;;;;5.78;100.00;96519.88;4976820;28;20026;-62
2022/03/19 07:57:56;;;;;;;42.25;24.00;;;;;;;5.71;100.00;96524.31;4976561;28;20532;-58
2022/03/19 08:00:22;;;;;;;42.38;24.02;;;;;;;5.82;100.00;96528.25;4993584;28;20072;-60
2022/03/19 08:02:51;;;;;;;39.88;24.02;;;;;;;5.92;100.00;96522.59;4994997;28;20057;-61
2022/03/19 08:05:16;;;;;;;39.95;24.25;;;;;;;5.87;100.00;96527.69;4947388;28;20034;-60
2022/03/19 08:07:42;;;;;;;39.00;23.10;;;;;;;5.72;100.00;96549.06;4977529;28;20022;-61
2022/03/19 08:10:09;;;;;;;39.47;22.15;;;;;;;5.76;100.00;96543.19;4991279;28;20057;-60
2022/03/19 08:12:39;;;;;;;42.85;25.45;;;;;;;5.94;100.00;96532.00;4994123;28;20057;-61
2022/03/19 08:15:06;;;;;;;40.35;24.80;;;;;;;6.20;100.00;96533.09;4993424;28;20173;-60
2022/03/19 08:17:33;;;;;;;40.65;24.67;;;;;;;6.57;100.00;96537.84;4995119;28;20019;-64
2022/03/19 08:19:59;;;;;;;41.78;25.88;;;;;;;6.67;100.00;96548.91;4995184;28;20037;-58
2022/03/19 08:22:28;;;;;;;43.60;25.52;;;;;;;6.59;100.00;96554.44;4993840;28;20026;-62
2022/03/19 08:24:53;;;;;;;47.80;27.10;;;;;;;6.49;100.00;96559.34;4994558;28;20026;-61
2022/03/19 08:27:26;;;;;;;48.80;28.23;;;;;;;6.83;100.00;96560.19;4995099;28;20030;-57
2022/03/19 08:29:55;;;;;;;47.78;26.95;;;;;;;7.21;100.00;96563.84;4994686;28;20113;-60
2022/03/19 08:32:22;;;;;;;43.97;26.45;;;;;;;7.44;100.00;96574.06;4991718;28;20397;-60
2022/03/19 08:34:48;;;;;;;48.80;26.75;;;;;;;7.54;100.00;96586.97;4995799;28;20026;-58
2022/03/19 08:37:13;;;;;;;44.10;26.33;;;;;;;7.50;100.00;96609.75;4995406;28;20413;-60
2022/03/19 08:42:29;;;;;;;44.25;25.10;;;;;;;7.44;100.00;96614.03;4995843;28;20457;-62
2022/03/19 08:44:56;;;;;;;42.95;26.40;;;;;;;7.25;100.00;96625.53;4995766;28;20030;-62
2022/03/19 08:47:22;;;;;;;48.28;27.58;;;;;;;7.19;100.00;96621.88;4995362;28;20101;-62
2022/03/19 08:49:47;;;;;;;44.28;26.08;;;;;;;7.46;100.00;96588.00;4995302;28;20113;-62
2022/03/19 08:52:15;;;;;;;39.25;24.23;;;;;;;7.70;100.00;96609.69;4994585;28;20042;-60
2022/03/19 08:54:44;;;;;;;39.10;23.77;;;;;;;8.02;100.00;96621.28;4995205;28;20022;-60
2022/03/19 08:57:13;;;;;;;43.58;26.08;;;;;;;8.08;100.00;96623.94;4977633;28;20049;-59
2022/03/19 08:59:45;;;;;;;41.00;25.50;;;;;;;8.29;100.00;96633.50;4995101;28;20030;-63
2022/03/19 09:02:11;;;;;;;42.95;25.02;;;;;;;8.60;100.00;96640.78;4977312;28;20125;-61
2022/03/19 09:04:36;;;;;;;42.50;25.63;;;;;;;8.98;100.00;96656.75;4994896;28;20105;-61
2022/03/19 09:07:01;;;;;;;41.90;24.30;;;;;;;9.12;100.00;96676.22;4978028;28;20037;-59
2022/03/19 09:09:27;;;;;;;40.15;23.48;;;;;;;9.32;100.00;96673.38;4994911;28;20026;-61
2022/03/19 09:11:52;;;;;;;40.03;23.98;;;;;;;9.66;100.00;96685.44;4977448;28;20455;-62
2022/03/19 09:14:19;;;;;;;36.83;23.17;;;;;;;9.52;100.00;96691.94;4994907;28;20026;-59
2022/03/19 09:16:48;;;;;;;38.17;24.13;;;;;;;9.59;100.00;96712.25;4994716;28;20022;-55
2022/03/19 09:19:13;;;;;;;41.08;23.33;;;;;;;9.45;100.00;96718.75;4994669;28;20026;-57
2022/03/19 09:21:42;;;;;;;36.80;23.73;;;;;;;9.54;100.00;96725.44;4993554;28;20034;-59
2022/03/19 09:24:08;;;;;;;37.05;22.98;;;;;;;9.53;100.00;96728.34;4994650;28;20026;-61
2022/03/19 09:26:34;;;;;;;43.55;24.67;;;;;;;9.69;100.00;96727.00;4994627;28;20026;-58
2022/03/19 09:28:59;;;;;;;40.22;24.08;;;;;;;10.01;100.00;96725.06;4994503;28;20029;-61
2022/03/19 09:31:31;;;;;;;37.65;23.08;;;;;;;10.23;100.00;96730.84;4994641;28;20500;-56
2022/03/19 09:34:02;;;;;;;39.25;23.98;;;;;;;10.45;100.00;96753.47;4994468;28;20038;-58
2022/03/19 09:36:28;;;;;;;38.25;23.27;;;;;;;10.34;100.00;96759.56;4993430;28;20060;-59
2022/03/19 09:38:54;;;;;;;38.80;23.85;;;;;;;9.78;100.00;96763.16;4994094;28;20082;-62
2022/03/19 09:41:19;;;;;;;38.03;23.70;;;;;;;9.76;100.00;96757.16;4994354;28;20038;-60
2022/03/19 09:43:48;;;;;;;39.97;23.63;;;;;;;9.86;100.00;96752.97;4994194;28;20030;-60
2022/03/19 09:46:17;;;;;;;37.20;23.08;;;;;;;9.99;100.00;96754.72;4994030;28;20026;-54
2022/03/19 09:48:42;;;;;;;35.50;22.92;;;;;;;10.05;100.00;96742.31;4976734;28;20014;-64
2022/03/19 09:51:11;;;;;;;34.00;22.20;;;;;;;10.25;100.00;96751.00;4994180;28;20181;-57
2022/03/19 09:53:39;;;;;;;35.17;23.27;;;;;;;10.30;100.00;96759.16;4994055;28;20025;-59
2022/03/19 09:56:05;;;;;;;36.45;22.65;;;;;;;10.76;100.00;96757.03;4994054;28;20060;-55
2022/03/19 09:58:31;;;;;;;38.17;22.13;;;;;;;11.14;100.00;96754.88;4993934;28;20154;-62
2022/03/19 10:01:06;;;;;;;34.72;22.88;;;;;;;10.92;100.00;96777.84;4993924;28;20390;-60
2022/03/19 10:03:40;;;;;;;35.30;22.27;;;;;;;10.49;100.00;96778.75;4980229;28;20013;-60
2022/03/19 10:08:59;;;;;;;35.43;22.97;;;;;;;10.86;100.00;96768.88;4993948;28;20041;-64
2022/03/19 10:11:47;;;;;;;35.60;22.92;;;;;;;10.35;100.00;96778.09;4993696;28;20273;-55
2022/03/19 10:14:27;;;;;;;36.03;22.92;;;;;;;10.02;100.00;96767.66;4993430;28;20022;-60
2022/03/19 10:16:57;;;;;;;34.83;22.45;;;;;;;10.21;100.00;96749.78;4993521;28;20487;-62
2022/03/19 10:19:22;;;;;;;35.22;22.05;;;;;;;10.76;100.00;96741.78;4993367;28;20486;-59
2022/03/19 10:21:48;;;;;;;36.33;22.58;;;;;;;10.73;100.00;96758.28;4992165;28;20125;-63
2022/03/19 10:24:27;;;;;;;34.25;22.38;;;;;;;10.82;100.00;96772.19;4974331;28;20121;-63
2022/03/19 10:26:53;;;;;;;32.63;22.38;;;;;;;10.96;100.00;96763.78;4993332;28;20041;-59
2022/03/19 10:29:33;;;;;;;34.28;21.85;;;;;;;11.01;100.00;96761.22;4993359;28;20034;-57
2022/03/19 10:32:00;;;;;;;34.60;21.77;;;;;;;11.52;100.00;96761.78;4991861;28;20118;-58
2022/03/19 10:34:29;;;;;;;31.58;20.52;;;;;;;11.18;100.00;96782.03;4991994;28;20386;-65
2022/03/19 10:37:00;;;;;;;31.08;20.33;;;;;;;11.60;100.00;96751.50;4992704;28;20046;-61
2022/03/19 10:39:30;;;;;;;33.50;20.45;;;;;;;11.74;100.00;96770.09;4993124;28;20037;-60
2022/03/19 10:41:57;;;;;;;35.80;22.35;;;;;;;11.49;100.00;96764.91;4958201;28;20081;-60
2022/03/19 10:44:28;;;;;;;31.75;21.20;;;;;;;11.13;100.00;96779.22;4992274;28;20106;-60
2022/03/19 10:47:02;;;;;;;31.42;19.83;;;;;;;11.02;100.00;96760.19;4993269;28;20037;-59
2022/03/19 10:49:30;;;;;;;32.22;19.77;;;;;;;11.07;100.00;96772.94;4975904;28;20471;-63
2022/03/19 10:52:02;;;;;;;33.65;20.25;;;;;;;11.29;100.00;96767.88;4976086;28;20057;-61
2022/03/19 10:54:28;;;;;;;32.88;21.25;;;;;;;11.35;100.00;96769.63;4975969;28;20030;-63
2022/03/19 10:56:53;;;;;;;32.28;20.13;;;;;;;11.88;100.00;96761.63;4992748;28;20477;-62
2022/03/19 10:59:22;;;;;;;29.30;19.63;;;;;;;11.93;100.00;96779.72;4975466;28;20481;-62
2022/03/19 11:01:51;;;;;;;27.08;19.10;;;;;;;12.12;100.00;96780.44;4992898;28;20470;-62
2022/03/19 11:04:18;;;;;;;30.67;19.73;;;;;;;12.09;100.00;96797.03;4975709;28;20145;-63
2022/03/19 11:06:51;;;;;;;29.48;19.73;;;;;;;12.21;98.73;96791.66;4993370;28;20030;-60
2022/03/19 11:09:19;;;;;;;29.55;19.67;;;;;;;12.23;97.77;96786.88;4993020;28;20545;-65
2022/03/19 11:11:57;;;;;;;31.15;18.65;;;;;;;12.48;97.97;96800.88;4975336;28;20034;-63
2022/03/19 11:14:29;;;;;;;29.75;18.80;;;;;;;12.42;95.97;96802.66;4993044;28;20431;-63
2022/03/19 11:17:32;;;;;;;26.70;17.92;;;;;;;12.31;92.03;96818.78;4996735;28;20050;-63
2022/03/19 11:20:06;;;;;;;28.77;17.55;;;;;;;12.51;90.72;96823.81;4996783;28;20034;-63
2022/03/19 11:22:42;;;;;;;27.20;17.67;;;;;;;12.35;90.64;96833.38;4996623;28;20369;-64
2022/03/19 11:25:30;;;;;;;28.48;18.48;;;;;;;12.72;91.05;96815.94;4995455;28;20088;-62
2022/03/19 11:28:13;;;;;;;29.23;17.58;;;;;;;12.08;89.09;96819.56;4996573;28;20026;-63
2022/03/19 11:30:46;;;;;;;28.52;17.95;;;;;;;12.39;90.56;96811.19;4996873;28;20224;-61
2022/03/19 11:33:15;;;;;;;29.10;19.15;;;;;;;12.02;90.06;96820.47;4996517;28;20042;-63
2022/03/19 11:35:45;;;;;;;29.25;18.38;;;;;;;12.01;89.34;96800.06;4979019;28;20033;-63
2022/03/19 11:38:16;;;;;;;29.10;18.75;;;;;;;12.34;89.95;96805.69;4996653;28;20045;-63
2022/03/19 11:40:45;;;;;;;29.73;18.30;;;;;;;12.20;88.69;96796.22;4996819;28;20312;-64
2022/03/19 11:43:11;;;;;;;28.85;19.20;;;;;;;12.71;91.39;96792.81;4996464;28;20113;-63